sensor_id;sensor_type;location;lat;lon;timestamp;P1;durP1;ratioP1;P2;durP2;ratioP2
21601;SDS011;10963;50.934;4.668;2023-04-08T00:00:56;26.10;;;8.80;;
21601;SDS011;10963;50.934;4.668;2023-04-08T00:03:21;17.50;;;7.73;;
21601;SDS011;10963;50.934;4.668;2023-04-08T00:05:47;26.80;;;8.30;;
21601;SDS011;10963;50.934;4.668;2023-04-08T00:08:12;21.20;;;8.87;;
21601;SDS011;10963;50.934;4.668;2023-04-08T00:10:43;18.13;;;8.20;;
21601;SDS011;10963;50.934;4.668;2023-04-08T00:13:08;16.93;;;8.87;;
21601;SDS011;10963;50.934;4.668;2023-04-08T00:15:35;18.70;;;8.37;;
21601;SDS011;10963;50.934;4.668;2023-04-08T00:18:03;17.10;;;8.10;;
21601;SDS011;10963;50.934;4.668;2023-04-08T00:20:31;22.73;;;8.97;;
21601;SDS011;10963;50.934;4.668;2023-04-08T00:22:59;18.13;;;7.87;;
21601;SDS011;10963;50.934;4.668;2023-04-08T00:25:29;16.07;;;7.93;;
21601;SDS011;10963;50.934;4.668;2023-04-08T00:28:00;16.70;;;7.57;;
21601;SDS011;10963;50.934;4.668;2023-04-08T00:30:28;21.73;;;8.37;;
21601;SDS011;10963;50.934;4.668;2023-04-08T00:32:54;21.83;;;8.00;;
21601;SDS011;10963;50.934;4.668;2023-04-08T00:35:24;22.43;;;8.27;;
21601;SDS011;10963;50.934;4.668;2023-04-08T00:37:53;22.70;;;7.57;;
21601;SDS011;10963;50.934;4.668;2023-04-08T00:40:18;17.80;;;7.70;;
21601;SDS011;10963;50.934;4.668;2023-04-08T00:42:49;17.90;;;7.57;;
21601;SDS011;10963;50.934;4.668;2023-04-08T00:45:17;19.57;;;8.17;;
21601;SDS011;10963;50.934;4.668;2023-04-08T00:47:43;15.00;;;7.97;;
21601;SDS011;10963;50.934;4.668;2023-04-08T00:50:10;16.13;;;7.90;;
21601;SDS011;10963;50.934;4.668;2023-04-08T00:52:36;19.33;;;7.80;;
21601;SDS011;10963;50.934;4.668;2023-04-08T00:55:04;20.27;;;9.00;;
21601;SDS011;10963;50.934;4.668;2023-04-08T00:57:35;22.07;;;8.43;;
21601;SDS011;10963;50.934;4.668;2023-04-08T01:00:01;14.90;;;8.00;;
21601;SDS011;10963;50.934;4.668;2023-04-08T01:02:41;19.70;;;8.47;;
21601;SDS011;10963;50.934;4.668;2023-04-08T01:05:19;18.77;;;7.73;;
21601;SDS011;10963;50.934;4.668;2023-04-08T01:07:54;22.70;;;8.90;;
21601;SDS011;10963;50.934;4.668;2023-04-08T01:10:28;13.33;;;8.23;;
21601;SDS011;10963;50.934;4.668;2023-04-08T01:13:00;22.77;;;8.57;;
21601;SDS011;10963;50.934;4.668;2023-04-08T01:15:32;14.40;;;8.33;;
21601;SDS011;10963;50.934;4.668;2023-04-08T01:18:05;17.67;;;8.67;;
21601;SDS011;10963;50.934;4.668;2023-04-08T01:20:38;16.87;;;8.07;;
21601;SDS011;10963;50.934;4.668;2023-04-08T01:23:12;24.70;;;9.17;;
21601;SDS011;10963;50.934;4.668;2023-04-08T01:25:48;17.23;;;8.33;;
21601;SDS011;10963;50.934;4.668;2023-04-08T01:28:18;18.17;;;7.77;;
21601;SDS011;10963;50.934;4.668;2023-04-08T01:30:46;17.37;;;8.47;;
21601;SDS011;10963;50.934;4.668;2023-04-08T01:33:16;22.03;;;8.83;;
21601;SDS011;10963;50.934;4.668;2023-04-08T01:35:46;18.50;;;8.97;;
21601;SDS011;10963;50.934;4.668;2023-04-08T01:38:17;17.13;;;8.43;;
21601;SDS011;10963;50.934;4.668;2023-04-08T01:40:45;17.37;;;8.00;;
21601;SDS011;10963;50.934;4.668;2023-04-08T01:43:12;17.83;;;8.83;;
21601;SDS011;10963;50.934;4.668;2023-04-08T01:45:42;20.20;;;8.33;;
21601;SDS011;10963;50.934;4.668;2023-04-08T01:48:12;20.83;;;9.30;;
21601;SDS011;10963;50.934;4.668;2023-04-08T01:50:42;24.13;;;8.63;;
21601;SDS011;10963;50.934;4.668;2023-04-08T01:53:09;23.13;;;8.30;;
21601;SDS011;10963;50.934;4.668;2023-04-08T01:55:36;19.20;;;9.00;;
21601;SDS011;10963;50.934;4.668;2023-04-08T01:58:06;21.10;;;8.83;;
21601;SDS011;10963;50.934;4.668;2023-04-08T02:00:35;15.90;;;8.07;;
21601;SDS011;10963;50.934;4.668;2023-04-08T02:03:05;19.17;;;8.20;;
21601;SDS011;10963;50.934;4.668;2023-04-08T02:05:33;15.27;;;7.73;;
21601;SDS011;10963;50.934;4.668;2023-04-08T02:07:59;19.07;;;8.13;;
21601;SDS011;10963;50.934;4.668;2023-04-08T02:10:25;18.50;;;8.33;;
21601;SDS011;10963;50.934;4.668;2023-04-08T02:12:51;23.37;;;9.30;;
21601;SDS011;10963;50.934;4.668;2023-04-08T02:15:16;20.43;;;9.17;;
21601;SDS011;10963;50.934;4.668;2023-04-08T02:20:17;19.07;;;8.93;;
21601;SDS011;10963;50.934;4.668;2023-04-08T02:25:16;27.13;;;10.70;;
21601;SDS011;10963;50.934;4.668;2023-04-08T02:27:51;27.10;;;11.17;;
21601;SDS011;10963;50.934;4.668;2023-04-08T02:30:19;23.33;;;10.50;;
21601;SDS011;10963;50.934;4.668;2023-04-08T02:32:46;25.03;;;10.33;;
21601;SDS011;10963;50.934;4.668;2023-04-08T02:35:15;27.43;;;11.10;;
21601;SDS011;10963;50.934;4.668;2023-04-08T02:37:45;26.17;;;11.67;;
21601;SDS011;10963;50.934;4.668;2023-04-08T02:40:23;27.97;;;10.87;;
21601;SDS011;10963;50.934;4.668;2023-04-08T02:42:55;29.43;;;10.47;;
21601;SDS011;10963;50.934;4.668;2023-04-08T02:45:22;26.40;;;11.10;;
21601;SDS011;10963;50.934;4.668;2023-04-08T02:47:55;28.90;;;12.07;;
21601;SDS011;10963;50.934;4.668;2023-04-08T02:50:23;30.03;;;11.20;;
21601;SDS011;10963;50.934;4.668;2023-04-08T02:52:52;25.97;;;11.97;;
21601;SDS011;10963;50.934;4.668;2023-04-08T02:55:17;23.57;;;11.60;;
21601;SDS011;10963;50.934;4.668;2023-04-08T02:57:43;27.77;;;10.93;;
21601;SDS011;10963;50.934;4.668;2023-04-08T03:00:11;22.97;;;11.10;;
21601;SDS011;10963;50.934;4.668;2023-04-08T03:02:37;28.33;;;11.07;;
21601;SDS011;10963;50.934;4.668;2023-04-08T03:05:03;29.07;;;12.03;;
21601;SDS011;10963;50.934;4.668;2023-04-08T03:07:29;32.30;;;11.60;;
21601;SDS011;10963;50.934;4.668;2023-04-08T03:09:55;28.60;;;12.50;;
21601;SDS011;10963;50.934;4.668;2023-04-08T03:12:23;32.40;;;11.50;;
21601;SDS011;10963;50.934;4.668;2023-04-08T03:14:51;24.53;;;11.07;;
21601;SDS011;10963;50.934;4.668;2023-04-08T03:17:21;34.87;;;12.83;;
21601;SDS011;10963;50.934;4.668;2023-04-08T03:19:47;30.17;;;11.80;;
21601;SDS011;10963;50.934;4.668;2023-04-08T03:22:13;25.27;;;11.37;;
21601;SDS011;10963;50.934;4.668;2023-04-08T03:24:38;27.57;;;10.63;;
21601;SDS011;10963;50.934;4.668;2023-04-08T03:27:07;31.40;;;11.73;;
21601;SDS011;10963;50.934;4.668;2023-04-08T03:29:36;28.03;;;11.97;;
21601;SDS011;10963;50.934;4.668;2023-04-08T03:32:02;23.87;;;10.90;;
21601;SDS011;10963;50.934;4.668;2023-04-08T03:34:32;30.30;;;12.53;;
21601;SDS011;10963;50.934;4.668;2023-04-08T03:37:00;27.70;;;12.27;;
21601;SDS011;10963;50.934;4.668;2023-04-08T03:39:26;24.97;;;11.80;;
21601;SDS011;10963;50.934;4.668;2023-04-08T03:41:54;25.80;;;11.40;;
21601;SDS011;10963;50.934;4.668;2023-04-08T03:44:24;23.30;;;11.90;;
21601;SDS011;10963;50.934;4.668;2023-04-08T03:46:51;29.13;;;12.47;;
21601;SDS011;10963;50.934;4.668;2023-04-08T03:49:19;26.00;;;11.83;;
21601;SDS011;10963;50.934;4.668;2023-04-08T03:51:44;29.93;;;12.20;;
21601;SDS011;10963;50.934;4.668;2023-04-08T03:54:13;31.40;;;12.50;;
21601;SDS011;10963;50.934;4.668;2023-04-08T03:56:38;30.87;;;13.47;;
21601;SDS011;10963;50.934;4.668;2023-04-08T03:59:04;31.00;;;12.67;;
21601;SDS011;10963;50.934;4.668;2023-04-08T04:01:32;35.17;;;12.83;;
21601;SDS011;10963;50.934;4.668;2023-04-08T04:04:00;36.57;;;13.23;;
21601;SDS011;10963;50.934;4.668;2023-04-08T04:06:26;31.97;;;13.20;;
21601;SDS011;10963;50.934;4.668;2023-04-08T04:08:54;30.77;;;12.20;;
21601;SDS011;10963;50.934;4.668;2023-04-08T04:11:20;28.30;;;12.00;;
21601;SDS011;10963;50.934;4.668;2023-04-08T04:13:46;29.93;;;13.03;;
21601;SDS011;10963;50.934;4.668;2023-04-08T04:16:14;30.63;;;13.50;;
21601;SDS011;10963;50.934;4.668;2023-04-08T04:18:42;29.23;;;12.47;;
21601;SDS011;10963;50.934;4.668;2023-04-08T04:21:15;33.37;;;12.63;;
21601;SDS011;10963;50.934;4.668;2023-04-08T04:23:43;30.77;;;13.63;;
21601;SDS011;10963;50.934;4.668;2023-04-08T04:26:11;34.07;;;12.60;;
21601;SDS011;10963;50.934;4.668;2023-04-08T04:28:37;39.13;;;13.60;;
21601;SDS011;10963;50.934;4.668;2023-04-08T04:31:08;31.63;;;13.97;;
21601;SDS011;10963;50.934;4.668;2023-04-08T04:33:48;36.63;;;13.30;;
21601;SDS011;10963;50.934;4.668;2023-04-08T04:36:14;34.47;;;14.07;;
21601;SDS011;10963;50.934;4.668;2023-04-08T04:38:40;38.90;;;14.57;;
21601;SDS011;10963;50.934;4.668;2023-04-08T04:41:09;32.93;;;13.43;;
21601;SDS011;10963;50.934;4.668;2023-04-08T04:43:37;38.77;;;14.03;;
21601;SDS011;10963;50.934;4.668;2023-04-08T04:46:02;37.37;;;13.47;;
21601;SDS011;10963;50.934;4.668;2023-04-08T04:48:36;30.97;;;12.53;;
21601;SDS011;10963;50.934;4.668;2023-04-08T04:51:03;32.77;;;12.70;;
21601;SDS011;10963;50.934;4.668;2023-04-08T04:53:31;31.07;;;13.63;;
21601;SDS011;10963;50.934;4.668;2023-04-08T04:55:57;30.83;;;13.10;;
21601;SDS011;10963;50.934;4.668;2023-04-08T04:58:25;38.07;;;14.00;;
21601;SDS011;10963;50.934;4.668;2023-04-08T05:00:50;39.63;;;14.07;;
21601;SDS011;10963;50.934;4.668;2023-04-08T05:03:16;37.43;;;14.77;;
21601;SDS011;10963;50.934;4.668;2023-04-08T05:05:42;33.87;;;14.13;;
21601;SDS011;10963;50.934;4.668;2023-04-08T05:08:08;30.37;;;13.07;;
21601;SDS011;10963;50.934;4.668;2023-04-08T05:10:34;36.77;;;14.07;;
21601;SDS011;10963;50.934;4.668;2023-04-08T05:12:59;36.17;;;13.40;;
21601;SDS011;10963;50.934;4.668;2023-04-08T05:15:27;32.17;;;14.63;;
21601;SDS011;10963;50.934;4.668;2023-04-08T05:17:56;31.37;;;12.93;;
21601;SDS011;10963;50.934;4.668;2023-04-08T05:20:26;29.83;;;12.87;;
21601;SDS011;10963;50.934;4.668;2023-04-08T05:22:52;27.97;;;13.47;;
21601;SDS011;10963;50.934;4.668;2023-04-08T05:25:20;33.43;;;13.47;;
21601;SDS011;10963;50.934;4.668;2023-04-08T05:27:50;37.43;;;13.93;;
21601;SDS011;10963;50.934;4.668;2023-04-08T05:30:19;34.37;;;14.37;;
21601;SDS011;10963;50.934;4.668;2023-04-08T05:32:45;28.93;;;14.17;;
21601;SDS011;10963;50.934;4.668;2023-04-08T05:35:11;31.83;;;14.70;;
21601;SDS011;10963;50.934;4.668;2023-04-08T05:37:36;35.47;;;15.17;;
21601;SDS011;10963;50.934;4.668;2023-04-08T05:40:04;41.10;;;14.97;;
21601;SDS011;10963;50.934;4.668;2023-04-08T05:42:33;39.93;;;16.17;;
21601;SDS011;10963;50.934;4.668;2023-04-08T05:45:01;29.80;;;14.77;;
21601;SDS011;10963;50.934;4.668;2023-04-08T05:47:27;37.13;;;15.53;;
21601;SDS011;10963;50.934;4.668;2023-04-08T05:49:53;40.50;;;16.13;;
21601;SDS011;10963;50.934;4.668;2023-04-08T05:52:19;42.83;;;15.47;;
21601;SDS011;10963;50.934;4.668;2023-04-08T05:54:47;45.60;;;15.73;;
21601;SDS011;10963;50.934;4.668;2023-04-08T05:57:15;42.57;;;16.27;;
21601;SDS011;10963;50.934;4.668;2023-04-08T05:59:43;36.87;;;16.27;;
21601;SDS011;10963;50.934;4.668;2023-04-08T06:02:14;34.70;;;16.77;;
21601;SDS011;10963;50.934;4.668;2023-04-08T06:04:39;41.67;;;16.60;;
21601;SDS011;10963;50.934;4.668;2023-04-08T06:07:10;35.17;;;15.90;;
21601;SDS011;10963;50.934;4.668;2023-04-08T06:09:36;39.77;;;16.00;;
21601;SDS011;10963;50.934;4.668;2023-04-08T06:12:02;41.10;;;16.17;;
21601;SDS011;10963;50.934;4.668;2023-04-08T06:14:28;48.43;;;16.77;;
21601;SDS011;10963;50.934;4.668;2023-04-08T06:16:56;44.00;;;16.40;;
21601;SDS011;10963;50.934;4.668;2023-04-08T06:19:29;39.30;;;15.70;;
21601;SDS011;10963;50.934;4.668;2023-04-08T06:21:59;46.20;;;17.97;;
21601;SDS011;10963;50.934;4.668;2023-04-08T06:24:27;43.93;;;17.73;;
21601;SDS011;10963;50.934;4.668;2023-04-08T06:26:55;39.13;;;17.63;;
21601;SDS011;10963;50.934;4.668;2023-04-08T06:29:21;36.77;;;17.60;;
21601;SDS011;10963;50.934;4.668;2023-04-08T06:31:49;50.53;;;17.57;;
21601;SDS011;10963;50.934;4.668;2023-04-08T06:34:19;42.47;;;17.87;;
21601;SDS011;10963;50.934;4.668;2023-04-08T06:36:45;36.93;;;16.63;;
21601;SDS011;10963;50.934;4.668;2023-04-08T06:39:12;42.43;;;18.40;;
21601;SDS011;10963;50.934;4.668;2023-04-08T06:41:39;35.97;;;17.13;;
21601;SDS011;10963;50.934;4.668;2023-04-08T06:44:09;47.80;;;19.23;;
21601;SDS011;10963;50.934;4.668;2023-04-08T06:46:37;43.77;;;18.73;;
21601;SDS011;10963;50.934;4.668;2023-04-08T06:49:07;40.50;;;17.57;;
21601;SDS011;10963;50.934;4.668;2023-04-08T06:51:33;47.63;;;18.90;;
21601;SDS011;10963;50.934;4.668;2023-04-08T06:53:59;49.43;;;19.90;;
21601;SDS011;10963;50.934;4.668;2023-04-08T06:56:27;49.87;;;19.37;;
21601;SDS011;10963;50.934;4.668;2023-04-08T06:58:52;40.87;;;18.87;;
21601;SDS011;10963;50.934;4.668;2023-04-08T07:01:23;55.87;;;20.43;;
21601;SDS011;10963;50.934;4.668;2023-04-08T07:03:51;49.33;;;19.83;;
21601;SDS011;10963;50.934;4.668;2023-04-08T07:06:18;52.37;;;20.47;;
21601;SDS011;10963;50.934;4.668;2023-04-08T07:08:47;45.97;;;19.77;;
21601;SDS011;10963;50.934;4.668;2023-04-08T07:11:12;40.80;;;20.03;;
21601;SDS011;10963;50.934;4.668;2023-04-08T07:13:38;33.27;;;17.13;;
21601;SDS011;10963;50.934;4.668;2023-04-08T07:16:06;27.63;;;14.37;;
21601;SDS011;10963;50.934;4.668;2023-04-08T07:18:34;29.20;;;14.33;;
21601;SDS011;10963;50.934;4.668;2023-04-08T07:21:03;31.87;;;15.47;;
21601;SDS011;10963;50.934;4.668;2023-04-08T07:23:33;39.03;;;18.23;;
21601;SDS011;10963;50.934;4.668;2023-04-08T07:26:01;36.97;;;17.93;;
21601;SDS011;10963;50.934;4.668;2023-04-08T07:28:30;32.70;;;16.80;;
21601;SDS011;10963;50.934;4.668;2023-04-08T07:31:00;30.13;;;15.90;;
21601;SDS011;10963;50.934;4.668;2023-04-08T07:33:38;32.10;;;15.33;;
21601;SDS011;10963;50.934;4.668;2023-04-08T07:36:09;34.13;;;15.40;;
21601;SDS011;10963;50.934;4.668;2023-04-08T07:38:36;37.47;;;16.87;;
21601;SDS011;10963;50.934;4.668;2023-04-08T07:41:03;41.43;;;17.43;;
21601;SDS011;10963;50.934;4.668;2023-04-08T07:43:31;37.77;;;17.20;;
21601;SDS011;10963;50.934;4.668;2023-04-08T07:46:04;33.40;;;16.50;;
21601;SDS011;10963;50.934;4.668;2023-04-08T07:48:30;32.13;;;15.40;;
21601;SDS011;10963;50.934;4.668;2023-04-08T07:50:57;31.47;;;14.20;;
21601;SDS011;10963;50.934;4.668;2023-04-08T07:53:26;24.53;;;12.00;;
21601;SDS011;10963;50.934;4.668;2023-04-08T07:55:52;27.97;;;14.40;;
21601;SDS011;10963;50.934;4.668;2023-04-08T07:58:18;19.37;;;11.47;;
21601;SDS011;10963;50.934;4.668;2023-04-08T08:00:46;25.10;;;12.97;;
21601;SDS011;10963;50.934;4.668;2023-04-08T08:03:11;20.60;;;10.37;;
21601;SDS011;10963;50.934;4.668;2023-04-08T08:05:37;13.37;;;8.60;;
21601;SDS011;10963;50.934;4.668;2023-04-08T08:08:03;13.47;;;8.90;;
21601;SDS011;10963;50.934;4.668;2023-04-08T08:10:29;16.40;;;8.73;;
21601;SDS011;10963;50.934;4.668;2023-04-08T08:12:54;15.43;;;8.90;;
21601;SDS011;10963;50.934;4.668;2023-04-08T08:15:22;17.43;;;9.40;;
21601;SDS011;10963;50.934;4.668;2023-04-08T08:17:48;15.23;;;10.00;;
21601;SDS011;10963;50.934;4.668;2023-04-08T08:20:16;23.60;;;11.77;;
21601;SDS011;10963;50.934;4.668;2023-04-08T08:22:42;16.97;;;10.90;;
21601;SDS011;10963;50.934;4.668;2023-04-08T08:25:09;21.17;;;12.53;;
21601;SDS011;10963;50.934;4.668;2023-04-08T08:27:35;23.80;;;12.83;;
21601;SDS011;10963;50.934;4.668;2023-04-08T08:30:06;23.70;;;12.30;;
21601;SDS011;10963;50.934;4.668;2023-04-08T08:32:33;23.97;;;13.60;;
21601;SDS011;10963;50.934;4.668;2023-04-08T08:34:59;22.13;;;12.60;;
21601;SDS011;10963;50.934;4.668;2023-04-08T08:37:25;18.30;;;11.07;;
21601;SDS011;10963;50.934;4.668;2023-04-08T08:39:51;23.33;;;12.53;;
21601;SDS011;10963;50.934;4.668;2023-04-08T08:44:52;31.77;;;13.50;;
21601;SDS011;10963;50.934;4.668;2023-04-08T08:47:21;18.00;;;10.23;;
21601;SDS011;10963;50.934;4.668;2023-04-08T08:49:51;20.83;;;11.20;;
21601;SDS011;10963;50.934;4.668;2023-04-08T08:52:17;23.07;;;11.00;;
21601;SDS011;10963;50.934;4.668;2023-04-08T08:54:46;19.57;;;10.03;;
21601;SDS011;10963;50.934;4.668;2023-04-08T08:57:18;16.17;;;10.70;;
21601;SDS011;10963;50.934;4.668;2023-04-08T08:59:45;20.30;;;10.73;;
21601;SDS011;10963;50.934;4.668;2023-04-08T09:02:30;17.90;;;10.37;;
21601;SDS011;10963;50.934;4.668;2023-04-08T09:05:01;19.70;;;11.33;;
21601;SDS011;10963;50.934;4.668;2023-04-08T09:07:29;18.67;;;10.60;;
21601;SDS011;10963;50.934;4.668;2023-04-08T09:09:59;17.87;;;9.97;;
21601;SDS011;10963;50.934;4.668;2023-04-08T09:12:25;21.00;;;10.40;;
21601;SDS011;10963;50.934;4.668;2023-04-08T09:15:07;15.73;;;9.97;;
21601;SDS011;10963;50.934;4.668;2023-04-08T09:17:36;22.13;;;10.43;;
21601;SDS011;10963;50.934;4.668;2023-04-08T09:20:09;18.13;;;10.47;;
21601;SDS011;10963;50.934;4.668;2023-04-08T09:25:27;23.97;;;11.73;;
21601;SDS011;10963;50.934;4.668;2023-04-08T09:27:57;23.87;;;11.17;;
21601;SDS011;10963;50.934;4.668;2023-04-08T09:30:26;18.77;;;9.90;;
21601;SDS011;10963;50.934;4.668;2023-04-08T09:35:23;20.87;;;12.03;;
21601;SDS011;10963;50.934;4.668;2023-04-08T09:37:50;21.80;;;11.63;;
21601;SDS011;10963;50.934;4.668;2023-04-08T09:40:16;18.53;;;11.60;;
21601;SDS011;10963;50.934;4.668;2023-04-08T09:42:45;18.83;;;10.20;;
21601;SDS011;10963;50.934;4.668;2023-04-08T09:45:12;12.50;;;8.03;;
21601;SDS011;10963;50.934;4.668;2023-04-08T09:47:50;19.37;;;10.13;;
21601;SDS011;10963;50.934;4.668;2023-04-08T09:50:22;18.70;;;9.77;;
21601;SDS011;10963;50.934;4.668;2023-04-08T09:52:55;18.83;;;10.27;;
21601;SDS011;10963;50.934;4.668;2023-04-08T09:55:30;17.53;;;10.70;;
21601;SDS011;10963;50.934;4.668;2023-04-08T10:00:33;18.00;;;10.77;;
21601;SDS011;10963;50.934;4.668;2023-04-08T10:06:07;22.33;;;12.47;;
21601;SDS011;10963;50.934;4.668;2023-04-08T10:08:36;20.87;;;11.03;;
21601;SDS011;10963;50.934;4.668;2023-04-08T10:11:02;17.83;;;10.73;;
21601;SDS011;10963;50.934;4.668;2023-04-08T10:13:28;20.60;;;11.60;;
21601;SDS011;10963;50.934;4.668;2023-04-08T10:18:43;21.77;;;13.43;;
21601;SDS011;10963;50.934;4.668;2023-04-08T10:24:10;20.07;;;10.77;;
21601;SDS011;10963;50.934;4.668;2023-04-08T10:26:40;18.10;;;10.23;;
21601;SDS011;10963;50.934;4.668;2023-04-08T10:31:54;16.83;;;9.03;;
21601;SDS011;10963;50.934;4.668;2023-04-08T10:34:22;16.67;;;10.53;;
21601;SDS011;10963;50.934;4.668;2023-04-08T10:36:50;19.07;;;9.67;;
21601;SDS011;10963;50.934;4.668;2023-04-08T10:39:20;18.73;;;11.00;;
21601;SDS011;10963;50.934;4.668;2023-04-08T10:41:49;20.03;;;10.13;;
21601;SDS011;10963;50.934;4.668;2023-04-08T10:46:48;18.70;;;11.30;;
21601;SDS011;10963;50.934;4.668;2023-04-08T10:49:16;20.57;;;10.37;;
21601;SDS011;10963;50.934;4.668;2023-04-08T10:51:44;16.13;;;10.00;;
21601;SDS011;10963;50.934;4.668;2023-04-08T10:54:11;16.20;;;9.37;;
21601;SDS011;10963;50.934;4.668;2023-04-08T10:59:12;13.50;;;8.73;;
21601;SDS011;10963;50.934;4.668;2023-04-08T11:01:41;11.97;;;7.87;;
21601;SDS011;10963;50.934;4.668;2023-04-08T11:04:15;10.33;;;7.10;;
21601;SDS011;10963;50.934;4.668;2023-04-08T11:06:47;14.40;;;7.83;;
21601;SDS011;10963;50.934;4.668;2023-04-08T11:09:13;13.63;;;8.30;;
21601;SDS011;10963;50.934;4.668;2023-04-08T11:11:41;13.37;;;8.50;;
21601;SDS011;10963;50.934;4.668;2023-04-08T11:14:08;13.47;;;8.20;;
21601;SDS011;10963;50.934;4.668;2023-04-08T11:16:34;11.70;;;7.07;;
21601;SDS011;10963;50.934;4.668;2023-04-08T11:19:03;10.70;;;7.40;;
21601;SDS011;10963;50.934;4.668;2023-04-08T11:21:30;13.53;;;8.23;;
21601;SDS011;10963;50.934;4.668;2023-04-08T11:23:56;15.37;;;8.57;;
21601;SDS011;10963;50.934;4.668;2023-04-08T11:26:22;14.93;;;9.57;;
21601;SDS011;10963;50.934;4.668;2023-04-08T11:28:49;17.00;;;10.32;;
21601;SDS011;10963;50.934;4.668;2023-04-08T11:31:16;14.93;;;9.47;;
21601;SDS011;10963;50.934;4.668;2023-04-08T11:33:44;14.40;;;9.10;;
21601;SDS011;10963;50.934;4.668;2023-04-08T11:36:11;15.57;;;9.53;;
21601;SDS011;10963;50.934;4.668;2023-04-08T11:38:38;14.70;;;9.63;;
21601;SDS011;10963;50.934;4.668;2023-04-08T11:41:09;17.57;;;10.60;;
21601;SDS011;10963;50.934;4.668;2023-04-08T11:43:38;15.23;;;10.03;;
21601;SDS011;10963;50.934;4.668;2023-04-08T11:46:14;15.90;;;10.93;;
21601;SDS011;10963;50.934;4.668;2023-04-08T11:48:45;21.53;;;11.40;;
21601;SDS011;10963;50.934;4.668;2023-04-08T11:51:25;18.33;;;11.37;;
21601;SDS011;10963;50.934;4.668;2023-04-08T11:53:52;21.00;;;12.13;;
21601;SDS011;10963;50.934;4.668;2023-04-08T11:56:20;19.90;;;12.77;;
21601;SDS011;10963;50.934;4.668;2023-04-08T11:58:48;19.80;;;11.67;;
21601;SDS011;10963;50.934;4.668;2023-04-08T12:01:14;19.73;;;12.80;;
21601;SDS011;10963;50.934;4.668;2023-04-08T12:03:59;21.53;;;13.30;;
21601;SDS011;10963;50.934;4.668;2023-04-08T12:06:28;20.50;;;12.60;;
21601;SDS011;10963;50.934;4.668;2023-04-08T12:08:58;24.03;;;14.63;;
21601;SDS011;10963;50.934;4.668;2023-04-08T12:11:23;20.33;;;12.90;;
21601;SDS011;10963;50.934;4.668;2023-04-08T12:13:50;22.07;;;14.03;;
21601;SDS011;10963;50.934;4.668;2023-04-08T12:16:18;22.63;;;12.97;;
21601;SDS011;10963;50.934;4.668;2023-04-08T12:18:46;22.37;;;13.40;;
21601;SDS011;10963;50.934;4.668;2023-04-08T12:21:12;21.50;;;13.57;;
21601;SDS011;10963;50.934;4.668;2023-04-08T12:23:37;25.00;;;14.10;;
21601;SDS011;10963;50.934;4.668;2023-04-08T12:26:03;35.03;;;16.73;;
21601;SDS011;10963;50.934;4.668;2023-04-08T12:28:29;33.53;;;17.90;;
21601;SDS011;10963;50.934;4.668;2023-04-08T12:30:55;35.93;;;18.33;;
21601;SDS011;10963;50.934;4.668;2023-04-08T12:33:20;27.47;;;18.10;;
21601;SDS011;10963;50.934;4.668;2023-04-08T12:35:48;30.47;;;17.77;;
21601;SDS011;10963;50.934;4.668;2023-04-08T12:38:17;35.17;;;17.73;;
21601;SDS011;10963;50.934;4.668;2023-04-08T12:40:42;37.10;;;19.30;;
21601;SDS011;10963;50.934;4.668;2023-04-08T12:43:08;39.03;;;21.40;;
21601;SDS011;10963;50.934;4.668;2023-04-08T12:45:33;35.07;;;20.03;;
21601;SDS011;10963;50.934;4.668;2023-04-08T12:48:01;41.07;;;22.07;;
21601;SDS011;10963;50.934;4.668;2023-04-08T12:50:27;38.43;;;20.93;;
21601;SDS011;10963;50.934;4.668;2023-04-08T12:52:53;37.30;;;21.40;;
21601;SDS011;10963;50.934;4.668;2023-04-08T12:55:19;39.47;;;23.33;;
21601;SDS011;10963;50.934;4.668;2023-04-08T12:57:48;39.50;;;21.67;;
21601;SDS011;10963;50.934;4.668;2023-04-08T13:00:15;37.93;;;22.30;;
21601;SDS011;10963;50.934;4.668;2023-04-08T13:02:49;34.03;;;19.37;;
21601;SDS011;10963;50.934;4.668;2023-04-08T13:05:14;30.43;;;18.83;;
21601;SDS011;10963;50.934;4.668;2023-04-08T13:07:42;36.93;;;19.70;;
21601;SDS011;10963;50.934;4.668;2023-04-08T13:10:08;34.33;;;19.63;;
21601;SDS011;10963;50.934;4.668;2023-04-08T13:12:34;30.87;;;18.90;;
21601;SDS011;10963;50.934;4.668;2023-04-08T13:15:02;32.03;;;18.90;;
21601;SDS011;10963;50.934;4.668;2023-04-08T13:17:28;37.33;;;20.77;;
21601;SDS011;10963;50.934;4.668;2023-04-08T13:19:55;36.13;;;22.67;;
21601;SDS011;10963;50.934;4.668;2023-04-08T13:22:21;38.40;;;22.60;;
21601;SDS011;10963;50.934;4.668;2023-04-08T13:24:47;36.43;;;22.17;;
21601;SDS011;10963;50.934;4.668;2023-04-08T13:27:15;37.90;;;21.50;;
21601;SDS011;10963;50.934;4.668;2023-04-08T13:29:41;33.63;;;21.50;;
21601;SDS011;10963;50.934;4.668;2023-04-08T13:32:07;35.33;;;21.33;;
21601;SDS011;10963;50.934;4.668;2023-04-08T13:34:32;35.43;;;21.10;;
21601;SDS011;10963;50.934;4.668;2023-04-08T13:36:58;35.20;;;21.53;;
21601;SDS011;10963;50.934;4.668;2023-04-08T13:39:24;34.10;;;20.20;;
21601;SDS011;10963;50.934;4.668;2023-04-08T13:41:49;32.97;;;21.27;;
21601;SDS011;10963;50.934;4.668;2023-04-08T13:44:18;32.10;;;19.47;;
21601;SDS011;10963;50.934;4.668;2023-04-08T13:46:45;35.13;;;20.80;;
21601;SDS011;10963;50.934;4.668;2023-04-08T13:49:11;31.40;;;19.90;;
21601;SDS011;10963;50.934;4.668;2023-04-08T13:51:37;32.23;;;19.20;;
21601;SDS011;10963;50.934;4.668;2023-04-08T13:54:03;30.60;;;19.60;;
21601;SDS011;10963;50.934;4.668;2023-04-08T13:56:29;33.00;;;19.07;;
21601;SDS011;10963;50.934;4.668;2023-04-08T13:58:56;31.97;;;19.00;;
21601;SDS011;10963;50.934;4.668;2023-04-08T14:01:22;32.23;;;19.33;;
21601;SDS011;10963;50.934;4.668;2023-04-08T14:03:50;32.83;;;18.90;;
21601;SDS011;10963;50.934;4.668;2023-04-08T14:06:16;26.90;;;18.33;;
21601;SDS011;10963;50.934;4.668;2023-04-08T14:08:45;28.97;;;18.97;;
21601;SDS011;10963;50.934;4.668;2023-04-08T14:11:25;30.13;;;19.20;;
21601;SDS011;10963;50.934;4.668;2023-04-08T14:13:53;28.83;;;17.87;;
21601;SDS011;10963;50.934;4.668;2023-04-08T14:16:19;29.47;;;18.20;;
21601;SDS011;10963;50.934;4.668;2023-04-08T14:18:47;28.17;;;18.07;;
21601;SDS011;10963;50.934;4.668;2023-04-08T14:21:13;26.67;;;15.57;;
21601;SDS011;10963;50.934;4.668;2023-04-08T14:23:40;29.07;;;16.27;;
21601;SDS011;10963;50.934;4.668;2023-04-08T14:26:08;24.50;;;16.03;;
21601;SDS011;10963;50.934;4.668;2023-04-08T14:28:38;24.30;;;15.20;;
21601;SDS011;10963;50.934;4.668;2023-04-08T14:31:04;23.17;;;14.97;;
21601;SDS011;10963;50.934;4.668;2023-04-08T14:33:30;24.93;;;15.80;;
21601;SDS011;10963;50.934;4.668;2023-04-08T14:35:58;23.87;;;14.57;;
21601;SDS011;10963;50.934;4.668;2023-04-08T14:38:24;21.20;;;14.37;;
21601;SDS011;10963;50.934;4.668;2023-04-08T14:40:53;23.13;;;14.77;;
21601;SDS011;10963;50.934;4.668;2023-04-08T14:43:18;23.27;;;13.33;;
21601;SDS011;10963;50.934;4.668;2023-04-08T14:45:48;21.03;;;14.03;;
21601;SDS011;10963;50.934;4.668;2023-04-08T14:48:18;20.27;;;13.23;;
21601;SDS011;10963;50.934;4.668;2023-04-08T14:50:44;23.07;;;14.43;;
21601;SDS011;10963;50.934;4.668;2023-04-08T14:53:10;23.50;;;15.10;;
21601;SDS011;10963;50.934;4.668;2023-04-08T14:55:40;19.73;;;13.53;;
21601;SDS011;10963;50.934;4.668;2023-04-08T14:58:06;22.40;;;14.30;;
21601;SDS011;10963;50.934;4.668;2023-04-08T15:00:32;22.37;;;14.20;;